createdAt,value
2017-08-14T00:00:13.951Z,98176.31
2017-08-14T00:02:43.211Z,98175.67
2017-08-14T00:05:12.611Z,98173.58
2017-08-14T00:07:41.931Z,98173.24
2017-08-14T00:10:09.404Z,98167.28
2017-08-14T00:12:39.032Z,98168.88
2017-08-14T00:15:08.368Z,98165.81
2017-08-14T00:17:37.818Z,98161.95
2017-08-14T00:20:07.209Z,98167.41
2017-08-14T00:22:36.843Z,98158.37
2017-08-14T00:25:06.514Z,98153.08
2017-08-14T00:27:35.650Z,98156.08
2017-08-14T00:30:05.343Z,98149.95
2017-08-14T00:32:34.524Z,98147.28
2017-08-14T00:35:05.615Z,98149.80
2017-08-14T00:37:35.232Z,98147.09
2017-08-14T00:40:04.509Z,98146.63
2017-08-14T00:42:33.680Z,98149.09
2017-08-14T00:45:03.405Z,98144.72
2017-08-14T00:47:32.734Z,98143.42
2017-08-14T00:50:02.271Z,98142.38
2017-08-14T00:52:31.636Z,98135.13
2017-08-14T00:55:01.252Z,98131.02
2017-08-14T00:57:30.633Z,98134.99
2017-08-14T00:59:59.836Z,98124.70
2017-08-14T01:02:28.963Z,98129.14
2017-08-14T01:04:58.636Z,98128.80
2017-08-14T01:07:28.015Z,98121.31
2017-08-14T01:09:57.734Z,98123.88
2017-08-14T01:12:27.477Z,98119.02
2017-08-14T01:14:56.723Z,98117.39
2017-08-14T01:17:29.326Z,98126.08
2017-08-14T01:20:00.819Z,98116.47
2017-08-14T01:22:31.405Z,98119.06
2017-08-14T01:25:00.855Z,98117.00
2017-08-14T01:27:29.778Z,98114.18
2017-08-14T01:29:59.073Z,98116.91
2017-08-14T01:32:28.814Z,98114.58
2017-08-14T01:34:56.902Z,98109.52
2017-08-14T01:37:26.493Z,98110.66
2017-08-14T01:39:55.459Z,98112.52
2017-08-14T01:42:24.892Z,98114.22
2017-08-14T01:44:54.312Z,98109.16
2017-08-14T01:47:22.501Z,98111.26
2017-08-14T01:49:52.126Z,98116.55
2017-08-14T01:52:21.300Z,98115.56
2017-08-14T01:54:50.693Z,98109.28
2017-08-14T01:57:20.310Z,98111.04
2017-08-14T01:59:49.229Z,98108.78
2017-08-14T02:02:17.553Z,98104.16
2017-08-14T02:04:46.626Z,98107.22
2017-08-14T02:07:15.839Z,98104.19
2017-08-14T02:09:44.844Z,98097.38
2017-08-14T02:12:14.206Z,98100.50
2017-08-14T02:14:43.313Z,98104.19
2017-08-14T02:17:12.993Z,98096.05
2017-08-14T02:19:42.230Z,98096.97
2017-08-14T02:22:11.934Z,98096.74
2017-08-14T02:24:41.567Z,98095.34
2017-08-14T02:27:10.744Z,98091.59
2017-08-14T02:29:38.537Z,98090.66
2017-08-14T02:32:07.991Z,98083.27
2017-08-14T02:34:37.432Z,98085.93
2017-08-14T02:37:06.781Z,98083.64
2017-08-14T02:39:36.013Z,98081.61
2017-08-14T02:42:05.430Z,98086.88
2017-08-14T02:44:35.552Z,98083.27
2017-08-14T02:47:04.637Z,98081.86
2017-08-14T02:49:33.649Z,98074.73
2017-08-14T02:52:02.929Z,98085.78
2017-08-14T02:54:32.548Z,98079.70
2017-08-14T02:57:01.347Z,98085.64
2017-08-14T02:59:30.681Z,98078.95
2017-08-14T03:02:00.049Z,98080.20
2017-08-14T03:04:29.398Z,98075.67
2017-08-14T03:06:58.224Z,98078.81
2017-08-14T03:09:27.479Z,98080.74
2017-08-14T03:11:57.076Z,98080.03
2017-08-14T03:14:25.390Z,98082.95
2017-08-14T03:16:54.052Z,98085.37
2017-08-14T03:19:23.505Z,98080.58
2017-08-14T03:21:52.664Z,98080.83
2017-08-14T03:24:22.153Z,98083.81
2017-08-14T03:26:51.047Z,98078.30
2017-08-14T03:29:21.008Z,98084.25
2017-08-14T03:31:50.474Z,98085.23
2017-08-14T03:34:19.921Z,98079.31
2017-08-14T03:36:49.316Z,98081.81
2017-08-14T03:39:18.667Z,98076.54
2017-08-14T03:41:48.136Z,98084.86
2017-08-14T03:44:17.349Z,98081.79
2017-08-14T03:46:46.853Z,98072.92
2017-08-14T03:49:15.783Z,98080.93
2017-08-14T03:51:44.826Z,98074.94
2017-08-14T03:54:15.963Z,98084.31
2017-08-14T03:56:44.909Z,98078.72
2017-08-14T03:59:12.611Z,98081.13
2017-08-14T04:01:40.059Z,98074.66
2017-08-14T04:04:07.556Z,98078.51
2017-08-14T04:06:35.051Z,98072.63
2017-08-14T04:09:02.505Z,98081.27
2017-08-14T04:11:29.978Z,98071.77
2017-08-14T04:13:57.427Z,98077.20
2017-08-14T04:16:24.907Z,98079.05
2017-08-14T04:18:52.379Z,98079.96
2017-08-14T04:21:19.875Z,98077.69
2017-08-14T04:23:47.361Z,98079.09
2017-08-14T04:26:14.808Z,98086.68
2017-08-14T04:28:43.115Z,98081.88
2017-08-14T04:31:10.579Z,98079.77
2017-08-14T04:33:38.084Z,98087.56
2017-08-14T04:36:06.410Z,98080.20
2017-08-14T04:38:33.867Z,98082.30
2017-08-14T04:41:01.360Z,98085.58
2017-08-14T04:43:28.843Z,98087.97
2017-08-14T04:45:56.341Z,98090.92
2017-08-14T04:48:23.809Z,98096.92
2017-08-14T04:50:51.323Z,98096.36
2017-08-14T04:53:18.807Z,98095.48
2017-08-14T04:55:46.330Z,98092.52
2017-08-14T04:58:13.780Z,98098.28
2017-08-14T05:00:41.275Z,98094.67
2017-08-14T05:03:08.735Z,98094.72
2017-08-14T05:05:36.207Z,98091.67
2017-08-14T05:08:03.692Z,98091.20
2017-08-14T05:10:31.175Z,98088.39
2017-08-14T05:12:58.656Z,98088.30
2017-08-14T05:15:26.120Z,98087.70
2017-08-14T05:17:53.622Z,98083.70
2017-08-14T05:20:21.083Z,98089.92
2017-08-14T05:22:48.538Z,98091.02
2017-08-14T05:25:16.024Z,98089.41
2017-08-14T05:27:44.139Z,98087.72
2017-08-14T05:30:11.648Z,98093.59
2017-08-14T05:32:39.094Z,98088.12
2017-08-14T05:35:06.712Z,98090.52
2017-08-14T05:37:34.199Z,98086.91
2017-08-14T05:40:01.652Z,98090.94
2017-08-14T05:42:29.771Z,98091.00
2017-08-14T05:44:57.227Z,98089.84
2017-08-14T05:47:24.739Z,98089.34
2017-08-14T05:49:52.198Z,98093.01
2017-08-14T05:52:19.669Z,98090.72
2017-08-14T05:54:47.175Z,98091.70
2017-08-14T05:57:14.692Z,98105.39
2017-08-14T05:59:42.176Z,98112.31
2017-08-14T06:02:09.633Z,98105.20
2017-08-14T06:04:37.119Z,98111.59
2017-08-14T06:07:04.607Z,98118.96
2017-08-14T06:09:32.064Z,98115.83
2017-08-14T06:11:59.555Z,98108.11
2017-08-14T06:14:27.019Z,98113.72
2017-08-14T06:16:54.511Z,98109.63
2017-08-14T06:19:21.974Z,98112.32
2017-08-14T06:21:49.447Z,98112.31
2017-08-14T06:24:16.947Z,98110.69
2017-08-14T06:26:48.452Z,98111.73
2017-08-14T06:29:16.012Z,98101.83
2017-08-14T06:31:43.581Z,98100.27
2017-08-14T06:34:11.067Z,98098.58
2017-08-14T06:36:38.571Z,98098.23
2017-08-14T06:39:06.051Z,98085.77
2017-08-14T06:41:33.519Z,98085.85
2017-08-14T06:44:01.076Z,98086.84
2017-08-14T06:46:28.598Z,98087.50
2017-08-14T06:48:56.070Z,98082.52
2017-08-14T06:51:23.574Z,98093.71
2017-08-14T06:53:51.092Z,98092.49
2017-08-14T06:56:18.549Z,98096.39
2017-08-14T06:58:46.047Z,98094.03
2017-08-14T07:01:13.575Z,98098.23
2017-08-14T07:03:41.071Z,98093.54
2017-08-14T07:06:08.538Z,98092.33
2017-08-14T07:08:36.044Z,98088.98
2017-08-14T07:11:03.627Z,98095.12
2017-08-14T07:13:31.175Z,98086.27
2017-08-14T07:15:58.681Z,98086.45
2017-08-14T07:18:26.150Z,98086.63
2017-08-14T07:20:53.638Z,98083.39
2017-08-14T07:23:21.128Z,98087.08
2017-08-14T07:25:48.589Z,98086.84
2017-08-14T07:28:16.755Z,98084.20
2017-08-14T07:30:44.267Z,98079.80
2017-08-14T07:33:11.775Z,98086.20
2017-08-14T07:35:39.271Z,98089.62
2017-08-14T07:38:06.723Z,98085.38
2017-08-14T07:40:34.222Z,98083.77
2017-08-14T07:43:01.727Z,98087.87
2017-08-14T07:45:29.375Z,98083.64
2017-08-14T07:47:56.863Z,98078.32
2017-08-14T07:50:24.318Z,98081.52
2017-08-14T07:52:51.832Z,98077.23
2017-08-14T07:55:19.375Z,98079.70
2017-08-14T07:57:46.927Z,98079.20
2017-08-14T08:00:14.400Z,98081.50
2017-08-14T08:02:41.916Z,98074.86
2017-08-14T08:05:09.443Z,98079.23
2017-08-14T08:07:36.888Z,98082.61
2017-08-14T08:10:04.389Z,98081.57
2017-08-14T08:12:31.849Z,98072.36
2017-08-14T08:14:59.335Z,98078.95
2017-08-14T08:17:26.825Z,98080.14
2017-08-14T08:19:54.344Z,98078.95
2017-08-14T08:22:22.707Z,98075.44
2017-08-14T08:24:50.159Z,98070.53
2017-08-14T08:27:17.651Z,98073.58
2017-08-14T08:29:45.128Z,98072.20
2017-08-14T08:32:12.588Z,98074.30
2017-08-14T08:34:40.069Z,98068.56
2017-08-14T08:37:08.177Z,98063.75
2017-08-14T08:39:35.666Z,98063.83
2017-08-14T08:42:03.115Z,98063.38
2017-08-14T08:44:30.628Z,98060.41
2017-08-14T08:46:58.988Z,98061.08
2017-08-14T08:49:26.515Z,98060.00
2017-08-14T08:51:54.011Z,98066.32
2017-08-14T08:54:21.468Z,98061.39
2017-08-14T08:56:48.938Z,98059.81
2017-08-14T08:59:16.423Z,98064.75
2017-08-14T09:01:43.879Z,98056.16
2017-08-14T09:04:11.371Z,98054.50
2017-08-14T09:06:38.816Z,98057.06
2017-08-14T09:09:06.288Z,98051.88
2017-08-14T09:11:33.767Z,98058.66
2017-08-14T09:14:01.244Z,98056.23
2017-08-14T09:16:28.744Z,98051.93
2017-08-14T09:19:05.616Z,98054.62
2017-08-14T09:21:33.061Z,98051.66
2017-08-14T09:24:00.516Z,98055.09
2017-08-14T09:26:28.106Z,98048.55
2017-08-14T09:28:55.565Z,98048.75
2017-08-14T09:31:23.048Z,98046.23
2017-08-14T09:33:50.495Z,98044.77
2017-08-14T09:36:17.980Z,98043.28
2017-08-14T09:38:45.453Z,98047.00
2017-08-14T09:41:12.944Z,98041.02
2017-08-14T09:43:40.402Z,98050.80
2017-08-14T09:46:07.891Z,98046.88
2017-08-14T09:48:35.466Z,98041.23
2017-08-14T09:51:03.068Z,98047.36
2017-08-14T09:53:30.648Z,98041.20
2017-08-14T09:55:58.108Z,98045.56
2017-08-14T09:58:25.602Z,98042.81
2017-08-14T10:00:53.079Z,98038.66
2017-08-14T10:03:20.541Z,98034.94
2017-08-14T10:05:48.532Z,98040.11
2017-08-14T10:08:16.350Z,98035.64
2017-08-14T10:10:43.893Z,98034.63
2017-08-14T10:13:11.395Z,98036.50
2017-08-14T10:15:38.923Z,98027.22
2017-08-14T10:18:06.531Z,98036.50
2017-08-14T10:20:34.081Z,98028.59
2017-08-14T10:23:01.585Z,98032.74
2017-08-14T10:25:29.042Z,98033.95
2017-08-14T10:27:56.558Z,98036.51
2017-08-14T10:30:24.691Z,98027.58
2017-08-14T10:32:52.143Z,98022.28
2017-08-14T10:35:19.631Z,98027.61
2017-08-14T10:37:47.076Z,98029.73
2017-08-14T10:40:14.603Z,98028.29
2017-08-14T10:42:42.078Z,98028.78
2017-08-14T10:45:09.523Z,98025.04
2017-08-14T10:47:37.016Z,98027.63
2017-08-14T10:50:04.503Z,98023.48
2017-08-14T10:52:31.992Z,98023.09
2017-08-14T10:54:59.447Z,98020.91
2017-08-14T10:57:26.956Z,98021.48
2017-08-14T10:59:54.513Z,98018.53
2017-08-14T11:02:21.995Z,98018.34
2017-08-14T11:04:49.480Z,98018.34
2017-08-14T11:07:16.973Z,98010.85
2017-08-14T11:09:44.429Z,98014.00
2017-08-14T11:12:11.920Z,98011.23
2017-08-14T11:14:39.387Z,98009.84
2017-08-14T11:17:06.864Z,98009.58
2017-08-14T11:19:34.337Z,98000.50
2017-08-14T11:22:01.827Z,98008.08
2017-08-14T11:24:29.282Z,98004.13
2017-08-14T11:26:56.732Z,97998.61
2017-08-14T11:29:24.215Z,97993.65
2017-08-14T11:31:51.680Z,97995.27
2017-08-14T11:34:19.136Z,97984.97
2017-08-14T11:36:46.608Z,97986.73
2017-08-14T11:39:14.065Z,97981.95
2017-08-14T11:41:41.570Z,97983.34
2017-08-14T11:44:09.034Z,97985.06
2017-08-14T11:46:36.514Z,97986.45
2017-08-14T11:49:04.020Z,97977.23
2017-08-14T11:51:31.476Z,97984.28
2017-08-14T11:53:58.947Z,97975.33
2017-08-14T11:56:26.437Z,97980.81
2017-08-14T11:58:53.979Z,97981.20
2017-08-14T12:01:21.440Z,97978.01
2017-08-14T12:03:48.901Z,97979.55
2017-08-14T12:06:17.327Z,97975.20
2017-08-14T12:08:44.779Z,97981.02
2017-08-14T12:11:12.264Z,97978.25
2017-08-14T12:13:39.719Z,97972.63
2017-08-14T12:16:07.215Z,97971.02
2017-08-14T12:18:34.700Z,97973.75
2017-08-14T12:21:02.166Z,97966.56
2017-08-14T12:23:29.660Z,97964.13
2017-08-14T12:25:57.129Z,97963.38
2017-08-14T12:28:25.715Z,97958.19
2017-08-14T12:30:53.175Z,97957.87
2017-08-14T12:33:20.652Z,97955.29
2017-08-14T12:35:48.143Z,97955.93
2017-08-14T12:38:15.609Z,97947.12
2017-08-14T12:40:43.095Z,97948.58
2017-08-14T12:43:10.572Z,97942.56
2017-08-14T12:45:38.094Z,97942.95
2017-08-14T12:48:05.586Z,97935.16
2017-08-14T12:50:33.146Z,97938.53
2017-08-14T12:53:00.722Z,97939.35
2017-08-14T12:55:28.226Z,97942.84
2017-08-14T12:57:55.679Z,97940.41
2017-08-14T13:00:23.197Z,97936.30
2017-08-14T13:02:50.656Z,97937.63
2017-08-14T13:05:18.168Z,97921.53
2017-08-14T13:07:45.645Z,97930.88
2017-08-14T13:10:13.105Z,97927.90
2017-08-14T13:12:40.593Z,97934.43
2017-08-14T13:15:08.060Z,97920.61
2017-08-14T13:17:35.569Z,97913.78
2017-08-14T13:20:03.031Z,97914.30
2017-08-14T13:22:30.517Z,97919.77
2017-08-14T13:24:57.969Z,97914.78
2017-08-14T13:27:25.431Z,97913.52
2017-08-14T13:29:52.937Z,97916.20
2017-08-14T13:32:20.406Z,97903.45
2017-08-14T13:34:47.879Z,97907.63
2017-08-14T13:37:16.641Z,97903.43
2017-08-14T13:39:44.167Z,97902.23
2017-08-14T13:42:11.632Z,97899.20
2017-08-14T13:44:39.148Z,97894.13
2017-08-14T13:47:06.643Z,97897.97
2017-08-14T13:49:34.116Z,97892.80
2017-08-14T13:52:01.604Z,97886.50
2017-08-14T13:54:29.063Z,97886.73
2017-08-14T13:56:56.613Z,97887.52
2017-08-14T13:59:24.061Z,97888.14
2017-08-14T14:01:51.502Z,97881.23
2017-08-14T14:04:19.022Z,97877.08
2017-08-14T14:06:46.498Z,97874.64
2017-08-14T14:09:13.967Z,97879.20
2017-08-14T14:11:41.461Z,97872.59
2017-08-14T14:14:08.948Z,97873.91
2017-08-14T14:16:36.507Z,97873.47
2017-08-14T14:19:03.992Z,97873.81
2017-08-14T14:21:31.453Z,97873.16
2017-08-14T14:23:58.915Z,97870.20
2017-08-14T14:26:26.406Z,97865.23
2017-08-14T14:28:53.861Z,97863.77
2017-08-14T14:31:21.460Z,97868.61
2017-08-14T14:33:49.048Z,97868.28
2017-08-14T14:36:16.547Z,97865.38
2017-08-14T14:38:45.155Z,97862.09
2017-08-14T14:41:12.691Z,97864.31
2017-08-14T14:43:40.309Z,97861.84
2017-08-14T14:46:08.651Z,97862.80
2017-08-14T14:48:36.227Z,97858.41
2017-08-14T14:51:03.698Z,97857.52
2017-08-14T14:53:31.219Z,97853.39
2017-08-14T14:55:58.675Z,97851.30
2017-08-14T14:58:26.116Z,97840.39
2017-08-14T15:00:53.671Z,97837.24
2017-08-14T15:03:21.123Z,97838.95
2017-08-14T15:05:48.669Z,97834.03
2017-08-14T15:08:16.138Z,97829.32
2017-08-14T15:10:43.619Z,97829.66
2017-08-14T15:13:11.104Z,97831.15
2017-08-14T15:15:38.595Z,97830.17
2017-08-14T15:18:06.559Z,97834.08
2017-08-14T15:20:34.101Z,97833.34
2017-08-14T15:23:01.646Z,97827.41
2017-08-14T15:25:29.415Z,97829.64
2017-08-14T15:27:56.936Z,97831.48
2017-08-14T15:30:24.487Z,97829.11
2017-08-14T15:32:52.804Z,97826.23
2017-08-14T15:35:20.332Z,97826.84
2017-08-14T15:37:47.826Z,97822.42
2017-08-14T15:40:15.292Z,97820.80
2017-08-14T15:42:43.620Z,97821.19
2017-08-14T15:45:11.216Z,97821.64
2017-08-14T15:47:38.751Z,97821.85
2017-08-14T15:50:06.453Z,97826.35
2017-08-14T15:52:33.927Z,97834.73
2017-08-14T15:55:01.543Z,97828.38
2017-08-14T15:57:29.320Z,97822.53
2017-08-14T15:59:57.725Z,97823.53
2017-08-14T16:02:25.934Z,97817.35
2017-08-14T16:04:55.680Z,97814.84
2017-08-14T16:07:23.291Z,97820.48
2017-08-14T16:09:50.820Z,97820.38
2017-08-14T16:12:18.396Z,97821.30
2017-08-14T16:14:46.333Z,97817.91
2017-08-14T16:17:13.956Z,97815.80
2017-08-14T16:19:46.393Z,97819.84
2017-08-14T16:22:14.724Z,97810.53
2017-08-14T16:24:42.243Z,97810.28
2017-08-14T16:36:06.176Z,97804.61
2017-08-14T16:47:52.200Z,97795.31
2017-08-14T17:22:08.509Z,97791.53
2017-08-14T17:31:40.670Z,97784.06
2017-08-14T17:34:08.970Z,97783.84
2017-08-14T17:36:36.598Z,97783.84
2017-08-14T17:42:26.223Z,97787.41
2017-08-14T17:44:54.471Z,97783.33
2017-08-14T17:47:22.468Z,97785.13
2017-08-14T17:49:50.634Z,97783.55
2017-08-14T17:52:29.693Z,97788.09
2017-08-14T17:55:04.085Z,97786.92
2017-08-14T18:06:41.242Z,97788.20
2017-08-14T18:09:19.170Z,97786.83
2017-08-14T18:14:50.093Z,97790.64
2017-08-14T18:34:45.975Z,97802.33
2017-08-14T18:37:13.592Z,97800.55
2017-08-14T18:48:26.587Z,97820.66
2017-08-14T18:50:54.710Z,97821.44
2017-08-14T18:53:24.052Z,97823.81
2017-08-14T18:55:56.259Z,97828.92
2017-08-14T18:58:24.152Z,97828.70
2017-08-14T19:32:30.374Z,97841.14
2017-08-14T19:34:58.026Z,97846.23
2017-08-14T19:37:25.680Z,97840.11
2017-08-14T19:39:53.343Z,97838.84
2017-08-14T20:03:35.850Z,97852.84
2017-08-14T20:09:15.358Z,97862.20
2017-08-14T20:11:42.925Z,97865.85
2017-08-14T21:29:07.534Z,97897.81
2017-08-14T22:26:38.794Z,97905.26
2017-08-14T22:29:06.791Z,97906.70
2017-08-14T22:31:34.570Z,97902.52
2017-08-14T23:03:23.627Z,97904.97
2017-08-14T23:05:51.855Z,97908.54
2017-08-14T23:08:23.300Z,97905.81
2017-08-14T23:10:51.434Z,97909.25
2017-08-14T23:13:19.099Z,97905.45
2017-08-14T23:15:47.537Z,97907.09
2017-08-14T23:18:16.388Z,97903.65
2017-08-14T23:29:15.571Z,97894.77
